Time;durP1;ratioP1;P1;durP2;ratioP2;P2;SDS_P1;SDS_P2;PMS_P1;PMS_P2;Temp;Humidity;BMP_temperature;BMP_pressure;BME280_temperature;BME280_humidity;BME280_pressure;Samples;Min_cycle;Max_cycle;Signal;HPM_P1;HPM_P2
2022/01/18 00:01:23;;;;;;;27.05;9.65;;;;;;;5.91;73.95;103743.88;5108776;28;20410;-66
2022/01/18 00:03:49;;;;;;;28.65;9.35;;;;;;;5.93;74.33;103743.75;5097322;28;20103;-67
2022/01/18 00:06:14;;;;;;;24.00;8.30;;;;;;;5.93;74.54;103744.63;5102538;28;20115;-67
2022/01/18 00:08:39;;;;;;;24.23;8.55;;;;;;;5.94;74.47;103745.50;5092783;28;20115;-67
2022/01/18 00:11:06;;;;;;;29.58;8.55;;;;;;;5.95;74.86;103750.00;5095537;28;20522;-67
2022/01/18 00:13:46;;;;;;;22.75;8.70;;;;;;;5.97;75.03;103758.97;5110097;28;20036;-67
2022/01/18 00:16:38;;;;;;;25.88;9.18;;;;;;;5.99;75.11;103757.81;5108033;28;20042;-67
2022/01/18 00:19:08;;;;;;;23.92;9.48;;;;;;;6.01;75.06;103755.78;5111907;28;20024;-67
2022/01/18 00:22:05;;;;;;;33.40;9.65;;;;;;;6.03;75.46;103750.97;5097083;28;20061;-67
2022/01/18 00:24:30;;;;;;;29.10;8.90;;;;;;;6.06;75.42;103755.31;5101543;28;20031;-67
2022/01/18 00:26:56;;;;;;;29.48;8.73;;;;;;;6.08;75.35;103750.50;5095198;28;20039;-67
2022/01/18 00:29:24;;;;;;;25.05;8.68;;;;;;;6.08;75.70;103748.63;5099505;28;20038;-67
2022/01/18 00:34:37;;;;;;;29.48;8.90;;;;;;;6.08;75.91;103764.28;5091775;28;20047;-67
2022/01/18 00:39:31;;;;;;;26.23;9.13;;;;;;;6.10;75.58;103774.16;5106234;28;20039;-67
2022/01/18 00:41:56;;;;;;;24.17;8.65;;;;;;;6.13;75.70;103773.88;5110864;28;20020;-68
2022/01/18 00:44:22;;;;;;;24.58;8.93;;;;;;;6.13;75.90;103772.97;5105340;28;20542;-67
2022/01/18 00:46:47;;;;;;;25.17;9.07;;;;;;;6.15;75.99;103774.56;5111526;28;20027;-67
2022/01/18 00:49:13;;;;;;;29.50;9.60;;;;;;;6.17;75.49;103773.53;5105046;28;20038;-67
2022/01/18 00:51:40;;;;;;;27.92;8.88;;;;;;;6.15;76.07;103782.84;5104505;28;20024;-66
2022/01/18 00:54:08;;;;;;;29.33;9.35;;;;;;;6.15;76.15;103780.09;5091740;28;20020;-67
2022/01/18 00:56:39;;;;;;;28.15;9.63;;;;;;;6.17;76.15;103790.09;5103739;28;20027;-67
2022/01/18 00:59:05;;;;;;;28.65;8.98;;;;;;;6.18;76.68;103795.47;5096486;28;20028;-67
2022/01/18 01:01:31;;;;;;;27.45;9.55;;;;;;;6.17;76.23;103795.59;5105374;28;20039;-67
2022/01/18 01:04:01;;;;;;;25.35;8.60;;;;;;;6.18;76.29;103791.84;5101312;28;20016;-67
2022/01/18 01:06:26;;;;;;;28.85;9.52;;;;;;;6.21;76.39;103783.25;5090048;28;20024;-67
2022/01/18 01:08:52;;;;;;;31.48;9.63;;;;;;;6.19;76.19;103783.41;5095181;28;20030;-67
2022/01/18 01:11:18;;;;;;;34.00;9.90;;;;;;;6.23;76.19;103783.97;5104660;28;20444;-67
2022/01/18 01:13:47;;;;;;;27.85;9.48;;;;;;;6.20;76.54;103785.13;5100269;28;20026;-67
2022/01/18 01:18:51;;;;;;;25.50;9.05;;;;;;;6.22;76.45;103785.00;5092746;28;20059;-67
2022/01/18 01:45:27;;;;;;;36.25;10.05;;;;;;;6.25;76.72;103781.91;5095362;28;20039;-67
2022/01/18 01:47:56;;;;;;;25.60;9.20;;;;;;;6.24;76.86;103771.91;5094733;28;20115;-67
2022/01/18 01:50:24;;;;;;;32.03;10.32;;;;;;;6.26;76.73;103778.16;5099038;28;20168;-67
2022/01/18 01:52:51;;;;;;;36.15;10.82;;;;;;;6.25;76.70;103771.78;5093322;28;20035;-67
2022/01/18 01:55:18;;;;;;;36.58;10.82;;;;;;;6.22;77.11;103772.06;5098280;28;20062;-67
2022/01/18 01:57:43;;;;;;;29.52;10.45;;;;;;;6.25;77.42;103770.88;5094472;28;20155;-67
2022/01/18 02:00:12;;;;;;;32.42;10.23;;;;;;;6.24;76.78;103774.66;5093378;28;20466;-68
2022/01/18 02:02:37;;;;;;;31.52;11.07;;;;;;;6.29;76.97;103777.88;5094152;28;20494;-67
2022/01/18 02:05:04;;;;;;;38.42;10.48;;;;;;;6.28;77.29;103776.09;5108873;28;20020;-67
2022/01/18 02:07:29;;;;;;;29.02;10.50;;;;;;;6.29;76.71;103777.88;5113689;28;20028;-67
2022/01/18 02:09:55;;;;;;;30.52;10.20;;;;;;;6.26;77.15;103778.16;5112409;28;20023;-67
2022/01/18 02:12:20;;;;;;;33.00;10.50;;;;;;;6.30;77.48;103790.63;5114434;28;20088;-67
2022/01/18 02:14:51;;;;;;;34.08;10.45;;;;;;;6.31;77.25;103793.22;5094926;28;20120;-67
2022/01/18 02:22:49;;;;;;;31.48;11.27;;;;;;;6.33;77.13;103791.19;5093242;28;20034;-67
2022/01/18 02:25:15;;;;;;;36.55;10.90;;;;;;;6.33;77.60;103784.81;5093572;28;20028;-67
2022/01/18 02:27:40;;;;;;;35.45;10.82;;;;;;;6.34;77.39;103784.63;5101036;28;20048;-67
2022/01/18 02:30:06;;;;;;;35.60;10.10;;;;;;;6.37;77.12;103787.09;5112106;28;20035;-67
2022/01/18 02:32:32;;;;;;;38.33;11.15;;;;;;;6.35;77.38;103783.63;5111306;28;20103;-67
2022/01/18 02:34:57;;;;;;;34.60;10.15;;;;;;;6.35;77.39;103777.22;5092731;28;20527;-67
2022/01/18 02:37:22;;;;;;;31.02;10.02;;;;;;;6.37;77.43;103770.53;5104465;28;20047;-67
2022/01/18 02:39:48;;;;;;;32.53;10.27;;;;;;;6.35;77.22;103763.44;5108636;28;20070;-68
2022/01/18 02:42:16;;;;;;;40.97;10.90;;;;;;;6.34;77.55;103769.97;5100199;28;20028;-67
2022/01/18 02:44:42;;;;;;;33.22;10.40;;;;;;;6.34;77.12;103764.47;5101630;28;20073;-67
2022/01/18 02:47:08;;;;;;;41.25;11.85;;;;;;;6.34;77.65;103765.31;5112469;28;20508;-67
2022/01/18 02:49:33;;;;;;;46.00;11.40;;;;;;;6.35;77.06;103760.69;5092604;28;20024;-67
2022/01/18 02:52:00;;;;;;;41.28;10.60;;;;;;;6.37;77.52;103762.28;5095020;28;20028;-67
2022/01/18 02:54:25;;;;;;;33.97;10.90;;;;;;;6.37;77.36;103762.28;5095256;28;20573;-68
2022/01/18 02:56:56;;;;;;;38.92;11.55;;;;;;;6.37;77.20;103769.69;5104720;28;20122;-67
2022/01/18 02:59:38;;;;;;;35.13;10.63;;;;;;;6.41;77.21;103770.25;5105753;28;20031;-67
2022/01/18 03:05:23;;;;;;;31.85;11.25;;;;;;;6.41;76.99;103775.75;5030231;28;20405;-67
2022/01/18 03:07:49;;;;;;;42.53;11.77;;;;;;;6.40;77.27;103772.09;5088475;28;20036;-67
2022/01/18 03:10:15;;;;;;;37.92;12.32;;;;;;;6.38;77.35;103760.38;5093296;28;20044;-67
2022/01/18 03:12:41;;;;;;;34.70;12.10;;;;;;;6.37;77.72;103770.53;5093556;28;20130;-68
2022/01/18 03:15:07;;;;;;;39.35;11.80;;;;;;;6.35;77.63;103766.19;5109888;28;20550;-67
2022/01/18 03:17:32;;;;;;;44.92;13.27;;;;;;;6.35;77.03;103760.69;5110647;28;20156;-67
2022/01/18 03:19:58;;;;;;;30.52;11.75;;;;;;;6.35;77.54;103768.94;5110596;28;20106;-67
2022/01/18 03:22:24;;;;;;;37.80;12.32;;;;;;;6.35;77.20;103772.56;5104022;28;20028;-67
2022/01/18 03:25:01;;;;;;;30.65;12.48;;;;;;;6.37;77.30;103772.44;5103583;28;20067;-67
2022/01/18 03:30:10;;;;;;;29.38;11.70;;;;;;;6.38;76.83;103782.44;5106294;28;20080;-68
2022/01/18 03:32:37;;;;;;;29.70;11.88;;;;;;;6.34;77.30;103779.13;5093250;28;20535;-68
2022/01/18 03:35:04;;;;;;;33.42;12.05;;;;;;;6.35;76.95;103783.63;5092505;28;20028;-67
2022/01/18 03:37:29;;;;;;;34.63;11.90;;;;;;;6.36;77.42;103781.72;5098932;28;20539;-68
2022/01/18 03:39:55;;;;;;;35.50;11.98;;;;;;;6.36;77.02;103782.56;5106236;28;20036;-67
2022/01/18 03:44:49;;;;;;;27.85;11.55;;;;;;;6.37;77.70;103777.97;5092386;28;20487;-67
2022/01/18 03:47:16;;;;;;;28.77;12.20;;;;;;;6.37;77.00;103778.81;5107729;28;20047;-67
2022/01/18 03:49:42;;;;;;;30.10;12.07;;;;;;;6.34;76.90;103776.38;5107235;28;20031;-67
2022/01/18 03:52:07;;;;;;;26.27;11.27;;;;;;;6.33;77.16;103784.81;5109746;28;20547;-67
2022/01/18 03:54:41;;;;;;;28.42;12.10;;;;;;;6.33;77.34;103782.03;5112054;28;20122;-67
2022/01/18 03:57:06;;;;;;;25.45;11.80;;;;;;;6.35;77.63;103783.63;5103471;28;20040;-67
2022/01/18 03:59:33;;;;;;;23.55;11.55;;;;;;;6.32;77.17;103783.03;5108006;28;20081;-67
2022/01/18 04:01:58;;;;;;;30.83;12.40;;;;;;;6.32;77.42;103797.69;5106829;28;20070;-67
2022/01/18 04:04:23;;;;;;;28.60;12.02;;;;;;;6.32;77.24;103792.19;5091732;28;20063;-67
2022/01/18 04:06:48;;;;;;;25.30;12.57;;;;;;;6.34;77.12;103792.06;5102231;28;20087;-67
2022/01/18 04:09:14;;;;;;;31.52;12.85;;;;;;;6.32;77.36;103796.84;5094600;28;20047;-67
2022/01/18 04:11:40;;;;;;;28.60;12.50;;;;;;;6.31;76.98;103797.88;5100916;28;20034;-67
2022/01/18 04:14:05;;;;;;;24.10;11.68;;;;;;;6.33;77.39;103796.72;5103547;28;20032;-67
2022/01/18 04:16:40;;;;;;;25.77;12.10;;;;;;;6.35;76.58;103802.06;5092826;28;20050;-67
2022/01/18 04:25:52;;;;;;;31.10;12.80;;;;;;;6.30;77.24;103807.19;5105065;28;20076;-68
2022/01/18 04:27:19;;;;;;;26.83;12.82;;;;;;;6.29;77.27;103799.94;5090590;28;20040;-69
2022/01/18 04:29:44;;;;;;;25.67;12.73;;;;;;;6.30;77.44;103809.94;5099128;28;20471;-67
2022/01/18 04:32:09;;;;;;;30.35;13.30;;;;;;;6.27;77.12;103813.00;5107570;28;20062;-68
2022/01/18 04:34:36;;;;;;;23.83;12.27;;;;;;;6.27;77.09;103813.00;5108524;28;20023;-67
2022/01/18 04:37:01;;;;;;;31.27;12.75;;;;;;;6.31;77.56;103806.16;5104296;28;20383;-68
2022/01/18 04:39:28;;;;;;;29.25;12.23;;;;;;;6.31;77.56;103806.16;5095975;28;20024;-68
2022/01/18 04:41:53;;;;;;;28.88;12.50;;;;;;;6.30;77.17;103810.78;5103918;28;20024;-68
2022/01/18 04:49:48;;;;;;;30.10;13.90;;;;;;;6.32;77.26;103811.50;5101082;28;20042;-68
2022/01/18 04:52:13;;;;;;;33.53;13.55;;;;;;;6.31;77.26;103809.78;5092211;28;20040;-68
2022/01/18 04:54:43;;;;;;;34.72;14.20;;;;;;;6.31;77.58;103811.66;5095989;28;20047;-67
2022/01/18 04:59:34;;;;;;;32.40;13.15;;;;;;;6.30;77.69;103812.69;5104614;28;20042;-68
2022/01/18 05:02:00;;;;;;;26.95;13.40;;;;;;;6.29;77.27;103810.97;5102241;28;20028;-68
2022/01/18 05:04:25;;;;;;;32.90;13.38;;;;;;;6.29;77.28;103813.72;5108958;28;20028;-68
2022/01/18 05:06:52;;;;;;;34.10;13.88;;;;;;;6.26;77.23;103812.13;5091751;28;20486;-67
2022/01/18 05:09:18;;;;;;;33.70;13.70;;;;;;;6.27;77.58;103815.75;5090424;28;20028;-67
2022/01/18 05:11:56;;;;;;;36.17;13.88;;;;;;;6.27;77.26;103815.75;5100140;28;20030;-68
2022/01/18 05:17:03;;;;;;;32.70;13.63;;;;;;;6.26;76.63;103825.91;5110742;28;20126;-67
2022/01/18 05:24:32;;;;;;;30.90;13.23;;;;;;;6.26;76.90;103823.16;5108422;28;20040;-68
2022/01/18 05:26:59;;;;;;;32.28;13.25;;;;;;;6.25;77.03;103821.44;5115707;28;20034;-67
2022/01/18 05:29:25;;;;;;;32.83;13.27;;;;;;;6.28;77.24;103821.09;5109899;28;20404;-67
2022/01/18 05:31:50;;;;;;;31.75;13.35;;;;;;;6.26;77.13;103823.16;5105373;28;20038;-68
2022/01/18 05:34:16;;;;;;;38.47;13.07;;;;;;;6.25;76.70;103815.00;5101401;28;20435;-67
2022/01/18 05:36:41;;;;;;;40.75;14.27;;;;;;;6.20;76.52;103825.66;5103112;28;20023;-67
2022/01/18 05:39:10;;;;;;;35.03;12.57;;;;;;;6.20;76.91;103825.66;5112741;28;20047;-67
2022/01/18 05:41:40;;;;;;;38.80;13.98;;;;;;;6.21;77.48;103830.13;5095323;28;20027;-67
2022/01/18 05:44:06;;;;;;;38.30;13.73;;;;;;;6.23;77.04;103822.59;5096414;28;20031;-67
2022/01/18 05:46:31;;;;;;;36.67;13.20;;;;;;;6.21;77.16;103827.38;5113026;28;20062;-67
2022/01/18 05:49:00;;;;;;;33.28;13.35;;;;;;;6.21;77.12;103824.63;5114385;28;20063;-67
2022/01/18 05:51:26;;;;;;;30.70;13.10;;;;;;;6.19;76.78;103818.41;5103776;28;20038;-67
2022/01/18 05:53:52;;;;;;;36.85;13.40;;;;;;;6.19;77.12;103815.63;5105748;28;20103;-68
2022/01/18 05:56:17;;;;;;;25.98;12.32;;;;;;;6.15;77.16;103813.19;5114161;28;20574;-67
2022/01/18 05:58:44;;;;;;;34.53;13.50;;;;;;;6.14;77.16;103814.22;5111054;28;20147;-67
2022/01/18 06:01:10;;;;;;;37.17;13.98;;;;;;;6.13;77.26;103812.47;5106506;28;20039;-68
2022/01/18 06:03:50;;;;;;;35.15;13.40;;;;;;;6.17;77.45;103812.16;5095440;28;20063;-67
2022/01/18 06:08:59;;;;;;;37.13;14.50;;;;;;;6.15;77.13;103815.94;5098309;28;20038;-67
2022/01/18 06:11:25;;;;;;;37.70;14.60;;;;;;;6.18;77.22;103808.41;5095420;28;20103;-68
2022/01/18 06:13:50;;;;;;;36.35;14.85;;;;;;;6.18;77.24;103817.53;5105643;28;20023;-68
2022/01/18 06:16:15;;;;;;;34.80;14.48;;;;;;;6.13;77.22;103818.00;5094509;28;20032;-67
2022/01/18 06:18:40;;;;;;;38.95;15.20;;;;;;;6.12;77.34;103810.72;5102181;28;20076;-67
2022/01/18 06:21:06;;;;;;;36.28;14.52;;;;;;;6.15;77.39;103820.59;5101382;28;20054;-67
2022/01/18 06:23:31;;;;;;;35.38;13.82;;;;;;;6.18;77.33;103813.91;5094977;28;20450;-67
2022/01/18 06:25:58;;;;;;;36.35;14.73;;;;;;;6.17;77.55;103823.19;5099934;28;20019;-67
2022/01/18 06:28:23;;;;;;;31.75;14.40;;;;;;;6.13;77.10;103823.50;5111229;28;20115;-67
2022/01/18 06:30:49;;;;;;;34.60;15.00;;;;;;;6.15;77.32;103826.09;5096814;28;20115;-67
2022/01/18 06:33:14;;;;;;;34.80;14.82;;;;;;;6.16;77.30;103825.06;5103191;28;20024;-67
2022/01/18 06:35:39;;;;;;;35.00;14.85;;;;;;;6.18;77.36;103817.53;5104696;28;20053;-67
2022/01/18 06:38:05;;;;;;;34.90;16.33;;;;;;;6.20;77.72;103823.75;5108408;28;20040;-68
2022/01/18 06:40:30;;;;;;;33.78;15.65;;;;;;;6.20;77.85;103811.84;5106149;27;20182;-67
2022/01/18 06:42:56;;;;;;;35.95;15.23;;;;;;;6.19;77.18;103807.38;5113494;27;20435;-67
2022/01/18 06:45:21;;;;;;;39.50;15.70;;;;;;;6.20;77.58;103811.84;5111881;27;20450;-67
2022/01/18 06:47:46;;;;;;;33.10;14.57;;;;;;;6.17;77.94;103810.28;5108861;28;20028;-69
2022/01/18 06:50:12;;;;;;;31.20;15.05;;;;;;;6.20;77.36;103825.66;5108804;27;20477;-66
2022/01/18 06:52:40;;;;;;;42.58;16.60;;;;;;;6.21;77.53;103821.84;5108713;27;20032;-66
2022/01/18 06:55:06;;;;;;;44.47;16.50;;;;;;;6.21;77.72;103820.00;5105563;27;20044;-66
2022/01/18 06:57:31;;;;;;;39.03;16.20;;;;;;;6.20;78.00;103825.66;5106921;27;20035;-66
2022/01/18 06:59:57;;;;;;;43.72;16.95;;;;;;;6.19;77.48;103822.03;5100065;27;20995;-66
2022/01/18 07:02:23;;;;;;;42.00;16.23;;;;;;;6.21;77.79;103825.50;5110075;27;20115;-66
2022/01/18 07:04:48;;;;;;;34.13;15.38;;;;;;;6.21;77.82;103830.13;5104653;27;20032;-65
2022/01/18 07:07:13;;;;;;;43.30;15.43;;;;;;;6.19;77.67;103832.19;5115940;27;20363;-65
2022/01/18 07:09:39;;;;;;;40.10;15.57;;;;;;;6.23;77.72;103836.38;5118730;27;20106;-65
2022/01/18 07:12:10;;;;;;;45.30;15.63;;;;;;;6.22;77.49;103838.28;5133141;27;20076;-65
2022/01/18 07:14:36;;;;;;;43.53;15.30;;;;;;;6.20;77.21;103828.41;5116634;27;20084;-65
2022/01/18 07:17:02;;;;;;;40.47;15.93;;;;;;;6.24;78.12;103836.22;5122649;27;20490;-65
2022/01/18 07:19:27;;;;;;;42.60;16.35;;;;;;;6.22;77.49;103840.16;5113012;27;20028;-64
2022/01/18 07:21:52;;;;;;;36.88;15.73;;;;;;;6.27;78.10;103837.81;5105745;28;20546;-65
2022/01/18 07:24:28;;;;;;;41.42;15.35;;;;;;;6.24;77.61;103836.22;5104219;27;20088;-66
2022/01/18 07:26:53;;;;;;;38.97;15.20;;;;;;;6.24;77.83;103840.88;5114633;27;20034;-66
2022/01/18 07:29:18;;;;;;;32.00;15.38;;;;;;;6.27;77.25;103846.94;5102354;27;20024;-65
2022/01/18 07:31:44;;;;;;;38.15;16.02;;;;;;;6.27;77.47;103851.59;5091338;28;20461;-66
2022/01/18 07:34:13;;;;;;;38.00;15.23;;;;;;;6.31;78.24;103847.53;5103435;28;20036;-64
2022/01/18 07:36:38;;;;;;;37.67;14.43;;;;;;;6.30;78.08;103849.41;5113339;27;20847;-66
2022/01/18 07:39:04;;;;;;;31.23;15.02;;;;;;;6.34;77.44;103849.97;5098908;28;20036;-66
2022/01/18 07:41:29;;;;;;;31.08;14.90;;;;;;;6.29;77.57;103849.59;5102754;28;20387;-65
2022/01/18 07:43:55;;;;;;;39.00;15.45;;;;;;;6.27;77.58;103851.59;5102280;28;20422;-68
2022/01/18 07:46:20;;;;;;;29.17;15.13;;;;;;;6.30;77.79;103857.69;5098911;28;20032;-69
2022/01/18 07:48:45;;;;;;;37.65;14.45;;;;;;;6.30;77.57;103862.34;5101534;27;20019;-69
2022/01/18 07:51:13;;;;;;;31.92;15.55;;;;;;;6.29;77.48;103850.44;5097299;28;20116;-69
2022/01/18 07:53:38;;;;;;;34.55;14.10;;;;;;;6.43;78.91;103860.09;5098870;28;20034;-69
2022/01/18 07:56:04;;;;;;;36.20;16.45;;;;;;;6.38;77.68;103855.03;5104437;28;20040;-68
2022/01/18 07:58:29;;;;;;;36.33;15.75;;;;;;;6.37;77.76;103860.72;5097187;28;20040;-69
2022/01/18 08:00:55;;;;;;;32.95;16.13;;;;;;;6.35;77.44;103863.63;5099012;27;20744;-71
2022/01/18 08:03:20;;;;;;;33.20;15.77;;;;;;;6.33;77.46;103860.16;5101809;28;20043;-69
2022/01/18 08:05:47;;;;;;;35.85;15.40;;;;;;;6.33;77.91;103862.91;5094734;28;20027;-69
2022/01/18 08:08:13;;;;;;;29.50;13.95;;;;;;;6.35;77.75;103865.50;5103161;28;20082;-68
2022/01/18 08:10:39;;;;;;;35.33;14.65;;;;;;;6.34;77.41;103863.78;5104468;28;20740;-66
2022/01/18 08:13:05;;;;;;;35.30;14.40;;;;;;;6.35;77.62;103865.50;5097764;28;20081;-67
2022/01/18 08:15:39;;;;;;;31.35;14.00;;;;;;;6.33;77.75;103867.56;5100074;28;20028;-67
2022/01/18 08:18:08;;;;;;;33.92;16.08;;;;;;;6.33;77.60;103870.31;5101262;27;20027;-68
2022/01/18 08:20:33;;;;;;;37.35;16.85;;;;;;;6.34;77.94;103863.78;5101442;28;20032;-67
2022/01/18 08:22:59;;;;;;;37.22;16.77;;;;;;;6.37;77.66;103852.44;5104471;27;20038;-65
2022/01/18 08:25:24;;;;;;;42.60;17.10;;;;;;;6.36;78.07;103856.22;5096319;28;20023;-64
2022/01/18 08:27:50;;;;;;;40.83;16.80;;;;;;;6.33;78.07;103864.81;5100527;27;20034;-65
2022/01/18 08:30:20;;;;;;;39.63;17.58;;;;;;;6.34;77.89;103866.53;5101351;28;20080;-68
2022/01/18 08:32:48;;;;;;;44.00;17.35;;;;;;;6.33;77.69;103867.56;5101185;27;20073;-69
2022/01/18 08:35:14;;;;;;;50.80;18.65;;;;;;;6.32;78.01;103854.78;5099499;27;20028;-67
2022/01/18 08:37:40;;;;;;;43.55;17.65;;;;;;;6.32;78.58;103860.28;5098005;27;20054;-68
2022/01/18 08:40:06;;;;;;;43.60;18.23;;;;;;;6.33;78.28;103865.69;5101048;27;20030;-67
2022/01/18 08:42:32;;;;;;;47.13;17.60;;;;;;;6.33;77.98;103856.53;5092124;28;20062;-68
2022/01/18 08:44:57;;;;;;;49.60;18.88;;;;;;;6.34;78.01;103859.13;5098558;27;20406;-69
2022/01/18 08:47:24;;;;;;;50.20;18.75;;;;;;;6.34;78.20;103858.25;5094821;27;20031;-69
2022/01/18 08:49:49;;;;;;;49.33;19.23;;;;;;;6.37;78.21;103869.00;5104767;28;20039;-67
2022/01/18 08:52:15;;;;;;;54.95;21.67;;;;;;;6.36;78.90;103861.72;5099302;28;20422;-67
2022/01/18 08:54:42;;;;;;;51.13;19.95;;;;;;;6.36;77.87;103864.47;5100686;28;20039;-67
2022/01/18 08:57:08;;;;;;;45.58;19.08;;;;;;;6.41;78.69;103862.16;5095681;28;20030;-68
2022/01/18 08:59:35;;;;;;;40.60;17.92;;;;;;;6.43;78.25;103865.63;5102780;28;20403;-67
2022/01/18 09:02:04;;;;;;;43.70;18.58;;;;;;;6.41;78.63;103870.44;5100150;28;20062;-69
2022/01/18 09:04:30;;;;;;;45.00;19.33;;;;;;;6.43;78.58;103865.63;5095734;28;20047;-70
2022/01/18 09:06:56;;;;;;;52.70;19.83;;;;;;;6.44;78.00;103864.59;5109114;28;20023;-66
2022/01/18 09:09:23;;;;;;;50.33;19.55;;;;;;;6.44;78.72;103864.59;5106351;28;20045;-71
2022/01/18 09:11:48;;;;;;;46.90;19.90;;;;;;;6.46;78.19;103859.81;5099984;28;20032;-69
2022/01/18 09:14:15;;;;;;;37.60;18.83;;;;;;;6.50;78.54;103866.75;5102433;28;20088;-65
2022/01/18 09:16:41;;;;;;;40.20;18.08;;;;;;;6.51;78.52;103875.91;5102049;28;20483;-70
2022/01/18 09:19:07;;;;;;;42.17;18.17;;;;;;;6.60;79.62;103869.44;5092483;28;20543;-68
2022/01/18 09:21:33;;;;;;;50.08;18.48;;;;;;;6.62;79.18;103873.81;5111235;28;20126;-68
2022/01/18 09:24:00;;;;;;;30.92;14.50;;;;;;;6.84;80.54;103871.66;5107196;28;20027;-69
2022/01/18 09:26:26;;;;;;;43.60;17.67;;;;;;;6.82;78.78;103879.22;5112843;28;20059;-70
2022/01/18 09:28:51;;;;;;;48.38;21.88;;;;;;;6.79;78.64;103883.16;5101798;28;20598;-70
2022/01/18 09:31:16;;;;;;;46.92;20.65;;;;;;;6.76;78.21;103886.25;5101509;28;20065;-70
2022/01/18 09:33:42;;;;;;;46.33;19.85;;;;;;;6.77;78.37;103889.88;5097535;28;20038;-70
2022/01/18 09:36:07;;;;;;;48.72;18.67;;;;;;;6.74;78.46;103887.41;5101957;28;20032;-70
2022/01/18 09:38:33;;;;;;;42.55;18.20;;;;;;;6.73;78.73;103891.19;5090259;28;20076;-69
2022/01/18 09:40:59;;;;;;;45.10;18.63;;;;;;;6.73;78.44;103885.69;5099974;28;20031;-69
2022/01/18 09:43:27;;;;;;;41.22;18.70;;;;;;;6.71;78.89;103887.72;5098399;28;20106;-68
2022/01/18 09:45:55;;;;;;;39.17;17.83;;;;;;;6.70;79.11;103883.22;5104125;28;20111;-66
2022/01/18 09:48:20;;;;;;;37.63;18.30;;;;;;;6.73;78.82;103892.06;5100435;28;20039;-70
2022/01/18 09:50:46;;;;;;;42.05;18.88;;;;;;;6.74;79.46;103892.94;5098512;28;20037;-68
2022/01/18 09:53:12;;;;;;;47.92;20.88;;;;;;;6.73;78.90;103893.97;5123623;27;20088;-69
2022/01/18 09:55:39;;;;;;;43.15;21.15;;;;;;;6.73;79.23;103897.59;5111800;28;20126;-69
2022/01/18 09:58:07;;;;;;;47.50;20.02;;;;;;;6.74;79.23;103895.69;5107021;28;20077;-69
2022/01/18 10:00:34;;;;;;;48.08;20.67;;;;;;;6.75;79.32;103897.41;5106497;28;20570;-69
2022/01/18 10:02:59;;;;;;;42.42;22.08;;;;;;;6.76;79.57;103904.66;5103642;28;20542;-69
2022/01/18 10:05:28;;;;;;;49.60;23.02;;;;;;;6.79;79.61;103896.97;5100302;28;20099;-69
2022/01/18 10:07:59;;;;;;;46.25;22.67;;;;;;;6.84;79.53;103889.09;5102173;28;20038;-70
2022/01/18 10:10:42;;;;;;;48.53;21.35;;;;;;;6.87;79.05;103901.72;5110679;28;20478;-69
2022/01/18 10:13:15;;;;;;;49.75;23.33;;;;;;;6.86;79.12;103891.69;5108411;27;20042;-69
2022/01/18 10:15:59;;;;;;;46.65;23.10;;;;;;;6.92;79.08;103896.63;5125451;27;20132;-68
2022/01/18 10:18:48;;;;;;;48.92;23.15;;;;;;;6.92;79.28;103898.47;5113245;27;20027;-69
2022/01/18 10:21:36;;;;;;;45.78;23.02;;;;;;;6.95;79.36;103901.81;5101702;28;20420;-68
2022/01/18 10:24:22;;;;;;;46.35;22.70;;;;;;;6.95;79.04;103898.19;5098545;28;20040;-68
2022/01/18 10:26:50;;;;;;;46.75;23.60;;;;;;;6.94;79.64;103899.22;5106894;28;20067;-68
2022/01/18 10:29:17;;;;;;;50.40;24.27;;;;;;;6.96;79.69;103892.53;5108472;28;20027;-68
2022/01/18 10:37:13;;;;;;;45.58;23.88;;;;;;;7.04;79.36;103884.31;5097774;28;20044;-68
2022/01/18 10:39:48;;;;;;;45.47;22.90;;;;;;;7.13;79.98;103882.50;5102809;28;20032;-67
2022/01/18 10:42:46;;;;;;;47.60;22.55;;;;;;;7.32;79.24;103878.75;5107179;28;20561;-66
2022/01/18 10:45:33;;;;;;;42.42;22.85;;;;;;;7.43;79.95;103875.75;5083849;28;20051;-64
2022/01/18 10:48:02;;;;;;;51.17;24.58;;;;;;;7.58;79.52;103876.03;5098520;28;20031;-63
2022/01/18 10:50:34;;;;;;;41.55;24.48;;;;;;;7.74;79.58;103869.78;5120874;27;20501;-63
2022/01/18 10:53:20;;;;;;;47.17;24.95;;;;;;;7.91;78.54;103866.13;5113747;27;20031;-66
2022/01/18 10:55:47;;;;;;;47.90;23.55;;;;;;;7.98;78.01;103861.69;5096114;28;20067;-66
2022/01/18 10:58:15;;;;;;;46.15;23.00;;;;;;;8.07;78.17;103863.47;5106108;28;20063;-66
2022/01/18 11:00:41;;;;;;;45.72;22.17;;;;;;;8.15;77.73;103864.56;5109165;28;20028;-66
2022/01/18 11:03:07;;;;;;;38.63;20.75;;;;;;;8.21;77.85;103861.09;5107147;27;20064;-66
2022/01/18 11:05:35;;;;;;;50.55;22.00;;;;;;;8.30;77.05;103862.91;5101619;27;20028;-66
2022/01/18 11:08:04;;;;;;;44.40;21.70;;;;;;;8.35;77.89;103846.66;5111598;27;20502;-66
2022/01/18 11:10:38;;;;;;;42.17;20.55;;;;;;;8.41;77.05;103848.81;5105860;27;20055;-66
2022/01/18 11:13:08;;;;;;;42.38;19.42;;;;;;;8.50;76.84;103850.59;5107471;27;20084;-65
2022/01/18 11:15:37;;;;;;;44.25;19.25;;;;;;;8.58;77.39;103852.53;5094089;28;20076;-65
2022/01/18 11:18:07;;;;;;;41.38;18.65;;;;;;;8.64;76.63;103850.97;5099194;28;20124;-65
2022/01/18 11:20:36;;;;;;;46.67;19.23;;;;;;;8.70;76.73;103853.09;5096989;28;20035;-65
2022/01/18 11:23:05;;;;;;;37.80;19.38;;;;;;;8.79;76.79;103849.31;5096872;28;20115;-65
2022/01/18 11:25:31;;;;;;;49.55;20.35;;;;;;;8.83;76.23;103847.94;5103302;27;20230;-64
2022/01/18 11:27:58;;;;;;;50.95;20.60;;;;;;;8.82;75.53;103844.31;5108322;28;20039;-66
2022/01/18 11:30:29;;;;;;;43.35;17.70;;;;;;;8.84;75.15;103845.00;5098913;28;20016;-66
2022/01/18 11:32:56;;;;;;;46.20;17.55;;;;;;;8.86;75.04;103830.97;5102617;28;20028;-67
2022/01/18 11:35:37;;;;;;;38.40;14.75;;;;;;;8.91;75.29;103842.41;5109701;28;20027;-67
2022/01/18 11:38:14;;;;;;;34.45;14.93;;;;;;;8.90;74.33;103835.16;5109954;27;20064;-64
2022/01/18 11:40:48;;;;;;;41.38;14.65;;;;;;;8.96;74.83;103841.91;5108574;27;20052;-67
2022/01/18 11:43:15;;;;;;;40.08;13.70;;;;;;;8.96;73.65;103828.06;5094176;27;20027;-67
2022/01/18 11:45:42;;;;;;;36.28;13.27;;;;;;;8.95;73.14;103831.88;5093972;28;20533;-67
2022/01/18 11:48:13;;;;;;;31.92;12.02;;;;;;;9.02;73.23;103831.00;5102122;28;20034;-66
2022/01/18 11:50:42;;;;;;;29.60;12.05;;;;;;;8.96;72.58;103822.50;5104541;27;20085;-65
2022/01/18 11:53:38;;;;;;;31.20;12.82;;;;;;;8.97;73.44;103827.03;5094894;28;20460;-66
2022/01/18 11:56:05;;;;;;;40.05;14.23;;;;;;;8.89;72.38;103822.34;5101100;28;20040;-67
2022/01/18 11:58:30;;;;;;;35.72;13.15;;;;;;;8.92;73.00;103827.56;5107780;28;20527;-68
2022/01/18 12:00:58;;;;;;;36.92;13.32;;;;;;;8.94;72.65;103831.00;5101841;28;20040;-69
2022/01/18 12:03:32;;;;;;;35.90;14.25;;;;;;;8.95;72.51;103831.88;5106008;27;20027;-67
2022/01/18 12:06:00;;;;;;;34.53;13.60;;;;;;;8.95;72.48;103829.09;5096388;28;20540;-66
2022/01/18 12:08:40;;;;;;;33.20;14.02;;;;;;;8.96;72.81;103823.41;5099075;28;20020;-66
2022/01/18 12:11:09;;;;;;;34.40;14.32;;;;;;;8.96;71.59;103809.56;5105952;28;20763;-66
2022/01/18 12:13:38;;;;;;;39.17;14.30;;;;;;;9.00;72.62;103808.19;5104574;28;20114;-66
2022/01/18 12:16:10;;;;;;;33.00;12.60;;;;;;;9.06;72.22;103804.69;5102001;28;20110;-68
2022/01/18 12:18:49;;;;;;;31.60;12.55;;;;;;;9.06;72.01;103801.94;5099169;28;20020;-66
2022/01/18 12:21:26;;;;;;;36.47;12.75;;;;;;;9.08;72.04;103804.56;5105575;28;20040;-68
2022/01/18 12:23:51;;;;;;;31.25;13.18;;;;;;;9.10;71.88;103806.09;5100287;28;20426;-67
2022/01/18 12:26:27;;;;;;;39.88;13.82;;;;;;;9.09;70.79;103804.38;5106777;27;20027;-68
2022/01/18 12:31:53;;;;;;;33.15;12.55;;;;;;;9.04;71.48;103797.63;5106772;28;20036;-67
2022/01/18 12:34:47;;;;;;;29.63;12.32;;;;;;;9.08;72.08;103796.25;5096506;28;20031;-67
2022/01/18 12:37:20;;;;;;;31.63;12.52;;;;;;;8.99;70.21;103791.69;5100623;28;20155;-70
2022/01/18 12:39:55;;;;;;;25.83;11.95;;;;;;;9.04;71.11;103800.38;5103872;28;20063;-69